Time;durP1;ratioP1;P1;durP2;ratioP2;P2;SDS_P1;SDS_P2;PMS_P1;PMS_P2;Temp;Humidity;BMP_temperature;BMP_pressure;BME280_temperature;BME280_humidity;BME280_pressure;Samples;Min_cycle;Max_cycle;Signal;HPM_P1;HPM_P2
2024/03/13 00:00:54;;;;;;;1.40;0.93;;;;;;;;;;5029554;28;20030;-56
2024/03/13 00:03:21;;;;;;;1.58;0.80;;;;;;;;;;5019176;28;20033;-64
2024/03/13 00:05:47;;;;;;;1.65;0.80;;;;;;;;;;5022446;28;20037;-58
2024/03/13 00:08:13;;;;;;;1.58;0.93;;;;;;;;;;5033998;28;20116;-56
2024/03/13 00:10:39;;;;;;;1.33;0.80;;;;;;;;;;5035462;28;20109;-58
2024/03/13 00:13:05;;;;;;;2.53;0.85;;;;;;;;;;5034323;28;20143;-62
2024/03/13 00:15:33;;;;;;;1.52;0.93;;;;;;;;;;5029851;28;20143;-61
2024/03/13 00:17:58;;;;;;;1.17;0.70;;;;;;;;;;5025633;28;20038;-61
2024/03/13 00:20:23;;;;;;;1.23;0.70;;;;;;;;;;5015466;28;20026;-61
2024/03/13 00:22:50;;;;;;;1.27;0.70;;;;;;;;;;5031106;28;20028;-62
2024/03/13 00:25:15;;;;;;;1.92;0.90;;;;;;;;;;5017133;28;20098;-62
2024/03/13 00:27:41;;;;;;;1.35;0.70;;;;;;;;;;5035273;28;20428;-57
2024/03/13 00:30:08;;;;;;;0.75;0.50;;;;;;;;;;5035887;28;20103;-59
2024/03/13 00:32:34;;;;;;;1.38;0.80;;;;;;;;;;5036683;28;20045;-65
2024/03/13 00:35:01;;;;;;;1.30;0.70;;;;;;;;;;5027745;28;20099;-69
2024/03/13 00:37:26;;;;;;;1.52;0.80;;;;;;;;;;5035783;28;20045;-57
2024/03/13 00:39:51;;;;;;;1.15;0.63;;;;;;;;;;5031656;28;20061;-61
2024/03/13 00:42:16;;;;;;;1.30;0.70;;;;;;;;;;5018095;28;20121;-62
2024/03/13 00:44:42;;;;;;;1.50;0.75;;;;;;;;;;5024083;28;20095;-65
2024/03/13 00:47:08;;;;;;;2.17;0.80;;;;;;;;;;5030207;28;20033;-69
2024/03/13 00:49:33;;;;;;;1.33;0.73;;;;;;;;;;5025977;28;20041;-68
2024/03/13 00:51:59;;;;;;;1.25;0.60;;;;;;;;;;5034701;28;20307;-65
2024/03/13 00:54:24;;;;;;;1.13;0.50;;;;;;;;;;5012247;28;20455;-71
2024/03/13 00:56:50;;;;;;;1.13;0.80;;;;;;;;;;5025109;28;20418;-69
2024/03/13 00:59:16;;;;;;;1.30;0.60;;;;;;;;;;5025413;28;20059;-59
2024/03/13 01:01:44;;;;;;;1.23;0.70;;;;;;;;;;5024914;28;20033;-66
2024/03/13 01:04:10;;;;;;;1.02;0.65;;;;;;;;;;5025295;28;20039;-64
2024/03/13 01:06:36;;;;;;;1.52;0.60;;;;;;;;;;5025959;28;20110;-58
2024/03/13 01:09:03;;;;;;;1.17;0.60;;;;;;;;;;5037246;28;20116;-57
2024/03/13 01:11:28;;;;;;;0.98;0.60;;;;;;;;;;5030310;28;20038;-66
2024/03/13 01:13:54;;;;;;;1.60;0.70;;;;;;;;;;5026562;28;20116;-68
2024/03/13 01:16:20;;;;;;;0.95;0.70;;;;;;;;;;5024426;28;20592;-61
2024/03/13 01:18:46;;;;;;;1.75;0.73;;;;;;;;;;5030933;28;20029;-60
2024/03/13 01:21:13;;;;;;;1.35;0.60;;;;;;;;;;5022889;28;20431;-67
2024/03/13 01:23:42;;;;;;;1.38;0.70;;;;;;;;;;5025014;28;20490;-57
2024/03/13 01:26:08;;;;;;;0.90;0.60;;;;;;;;;;5023725;28;20083;-66
2024/03/13 01:28:33;;;;;;;1.27;0.70;;;;;;;;;;5025287;28;20034;-59
2024/03/13 01:30:59;;;;;;;1.42;0.70;;;;;;;;;;5032208;28;20489;-60
2024/03/13 01:33:26;;;;;;;1.23;0.60;;;;;;;;;;5025034;28;20038;-65
2024/03/13 01:35:52;;;;;;;0.98;0.55;;;;;;;;;;5014644;28;20533;-67
2024/03/13 01:38:17;;;;;;;1.08;0.63;;;;;;;;;;5022665;28;20036;-65
2024/03/13 01:57:13;;;;;;;1.10;0.60;;;;;;;;;;5024943;28;20151;-64
2024/03/13 01:59:48;;;;;;;1.92;0.60;;;;;;;;;;5026689;28;20033;-66
2024/03/13 02:02:26;;;;;;;0.70;0.50;;;;;;;;;;5028460;28;20096;-63
2024/03/13 02:04:52;;;;;;;1.92;0.70;;;;;;;;;;5029674;28;20505;-60
2024/03/13 02:07:18;;;;;;;1.20;0.65;;;;;;;;;;5027419;28;20108;-64
2024/03/13 02:09:43;;;;;;;1.02;0.70;;;;;;;;;;5027797;28;20468;-72
2024/03/13 02:12:10;;;;;;;1.23;0.77;;;;;;;;;;5028108;28;20045;-62
2024/03/13 02:14:35;;;;;;;1.00;0.68;;;;;;;;;;5025308;28;20504;-56
2024/03/13 02:17:00;;;;;;;0.90;0.60;;;;;;;;;;5026191;28;20033;-56
2024/03/13 02:19:26;;;;;;;1.10;0.70;;;;;;;;;;5024076;28;20045;-56
2024/03/13 02:21:53;;;;;;;0.80;0.60;;;;;;;;;;5024293;28;20037;-56
2024/03/13 02:24:19;;;;;;;1.13;0.50;;;;;;;;;;5034398;28;20071;-57
2024/03/13 02:26:45;;;;;;;1.33;0.90;;;;;;;;;;5023681;28;20065;-58
2024/03/13 02:29:13;;;;;;;1.20;0.70;;;;;;;;;;5043267;28;20523;-64
2024/03/13 02:31:38;;;;;;;0.70;0.50;;;;;;;;;;5029522;28;20124;-61
2024/03/13 02:34:04;;;;;;;1.08;0.68;;;;;;;;;;5029052;28;20513;-65
2024/03/13 02:36:29;;;;;;;0.90;0.60;;;;;;;;;;5034886;28;20033;-67
2024/03/13 02:38:55;;;;;;;1.73;0.52;;;;;;;;;;5049967;28;20048;-70
2024/03/13 02:41:20;;;;;;;0.90;0.60;;;;;;;;;;5040257;28;20045;-71
2024/03/13 02:43:46;;;;;;;1.20;0.63;;;;;;;;;;5033804;28;20427;-70
2024/03/13 02:46:12;;;;;;;1.58;0.50;;;;;;;;;;5030840;28;20042;-67
2024/03/13 02:48:37;;;;;;;1.00;0.63;;;;;;;;;;5027645;28;20122;-59
2024/03/13 02:51:03;;;;;;;0.98;0.50;;;;;;;;;;5028808;28;20033;-61
2024/03/13 02:53:28;;;;;;;1.02;0.57;;;;;;;;;;5025119;28;20071;-61
2024/03/13 02:55:53;;;;;;;1.38;0.60;;;;;;;;;;5043693;28;20037;-58
2024/03/13 02:58:19;;;;;;;0.98;0.50;;;;;;;;;;5028969;28;20506;-57
2024/03/13 03:00:44;;;;;;;2.05;0.60;;;;;;;;;;5029057;28;20029;-63
2024/03/13 03:03:12;;;;;;;1.40;0.60;;;;;;;;;;5026402;28;20033;-57
2024/03/13 03:05:37;;;;;;;1.42;0.70;;;;;;;;;;5024119;28;20052;-57
2024/03/13 03:08:03;;;;;;;1.60;0.63;;;;;;;;;;5021485;28;20218;-60
2024/03/13 03:10:28;;;;;;;0.90;0.50;;;;;;;;;;5043277;28;20087;-58
2024/03/13 03:12:54;;;;;;;1.10;0.55;;;;;;;;;;5036898;28;20556;-57
2024/03/13 03:15:19;;;;;;;1.25;0.50;;;;;;;;;;5037616;28;20042;-56
2024/03/13 03:17:47;;;;;;;0.95;0.63;;;;;;;;;;5035463;28;20080;-57
2024/03/13 03:20:12;;;;;;;1.52;0.60;;;;;;;;;;5032529;28;20033;-58
2024/03/13 03:22:37;;;;;;;1.42;0.70;;;;;;;;;;5024050;28;20087;-57
2024/03/13 03:25:03;;;;;;;0.95;0.55;;;;;;;;;;5027353;28;20124;-59
2024/03/13 03:27:29;;;;;;;1.10;0.60;;;;;;;;;;5026024;28;20057;-57
2024/03/13 03:29:55;;;;;;;1.55;0.90;;;;;;;;;;5031868;28;20037;-57
2024/03/13 03:32:20;;;;;;;1.08;0.60;;;;;;;;;;5037099;28;20482;-57
2024/03/13 03:34:46;;;;;;;1.02;0.50;;;;;;;;;;5029110;28;20038;-59
2024/03/13 03:37:13;;;;;;;0.95;0.50;;;;;;;;;;5027057;28;20040;-67
2024/03/13 03:39:39;;;;;;;1.20;0.60;;;;;;;;;;5025518;28;20069;-57
2024/03/13 03:42:05;;;;;;;1.25;0.60;;;;;;;;;;5023604;28;20084;-57
2024/03/13 03:44:30;;;;;;;1.05;0.57;;;;;;;;;;5024711;28;20038;-59
2024/03/13 03:46:56;;;;;;;1.48;0.65;;;;;;;;;;5025991;28;20060;-60
2024/03/13 03:49:22;;;;;;;1.67;0.63;;;;;;;;;;5024739;28;20565;-57
2024/03/13 03:51:48;;;;;;;1.00;0.43;;;;;;;;;;5025173;28;20037;-57
2024/03/13 03:54:13;;;;;;;1.15;0.52;;;;;;;;;;5031365;28;20550;-56
2024/03/13 03:56:38;;;;;;;1.20;0.60;;;;;;;;;;5042453;28;20068;-56
2024/03/13 03:59:10;;;;;;;1.00;0.40;;;;;;;;;;5031627;28;20064;-57
2024/03/13 04:01:35;;;;;;;0.88;0.50;;;;;;;;;;5023526;28;20041;-57
2024/03/13 04:04:02;;;;;;;0.82;0.65;;;;;;;;;;5024801;28;20371;-56
2024/03/13 04:06:27;;;;;;;1.10;0.60;;;;;;;;;;5023507;28;20076;-58
2024/03/13 04:08:54;;;;;;;1.08;0.80;;;;;;;;;;5024405;28;20061;-57
2024/03/13 04:11:19;;;;;;;0.75;0.50;;;;;;;;;;5035854;28;20407;-60
2024/03/13 04:13:46;;;;;;;1.20;0.50;;;;;;;;;;5031425;28;20108;-57
2024/03/13 04:16:11;;;;;;;1.00;0.60;;;;;;;;;;5024710;28;20500;-56
2024/03/13 04:18:37;;;;;;;1.10;0.63;;;;;;;;;;5023044;28;20025;-63
2024/03/13 04:21:03;;;;;;;1.10;0.60;;;;;;;;;;5023712;28;20108;-56
2024/03/13 04:23:29;;;;;;;1.42;0.70;;;;;;;;;;5023754;28;20068;-56
2024/03/13 04:25:55;;;;;;;0.80;0.60;;;;;;;;;;5021565;28;20021;-61
2024/03/13 04:28:20;;;;;;;1.05;0.68;;;;;;;;;;5026664;28;20032;-60
2024/03/13 04:30:46;;;;;;;1.05;0.40;;;;;;;;;;5022263;28;20021;-57
2024/03/13 04:33:11;;;;;;;0.98;0.60;;;;;;;;;;5005698;28;20037;-57
2024/03/13 04:35:37;;;;;;;0.85;0.40;;;;;;;;;;5004756;28;20024;-56
2024/03/13 04:38:03;;;;;;;0.95;0.57;;;;;;;;;;5002048;28;20030;-57
2024/03/13 04:40:28;;;;;;;0.90;0.60;;;;;;;;;;5012390;28;20021;-56
2024/03/13 04:42:53;;;;;;;0.60;0.40;;;;;;;;;;5012999;28;20037;-59
2024/03/13 04:45:19;;;;;;;0.80;0.50;;;;;;;;;;5009522;28;20128;-58
2024/03/13 04:47:44;;;;;;;1.27;0.60;;;;;;;;;;5010959;28;20473;-56
2024/03/13 04:50:09;;;;;;;1.25;0.70;;;;;;;;;;5011371;28;20021;-56
2024/03/13 04:52:34;;;;;;;1.13;0.52;;;;;;;;;;5011267;28;20104;-57
2024/03/13 04:55:00;;;;;;;0.80;0.50;;;;;;;;;;5009308;28;20141;-58
2024/03/13 04:57:25;;;;;;;1.65;0.60;;;;;;;;;;5011427;28;20029;-55
2024/03/13 04:59:51;;;;;;;0.90;0.50;;;;;;;;;;5010306;28;20057;-55
2024/03/13 05:02:16;;;;;;;0.80;0.40;;;;;;;;;;5010884;28;20060;-58
2024/03/13 05:04:44;;;;;;;1.10;0.60;;;;;;;;;;5009952;28;20053;-64
2024/03/13 05:07:12;;;;;;;1.10;0.60;;;;;;;;;;5009734;28;20029;-61
2024/03/13 05:09:37;;;;;;;0.77;0.60;;;;;;;;;;5011177;28;20094;-63
2024/03/13 05:12:05;;;;;;;1.38;0.50;;;;;;;;;;5011643;28;20092;-56
2024/03/13 05:14:31;;;;;;;1.00;0.70;;;;;;;;;;5011523;28;20041;-56
2024/03/13 05:16:56;;;;;;;1.17;0.50;;;;;;;;;;5012598;28;20033;-58
2024/03/13 05:19:22;;;;;;;1.10;0.70;;;;;;;;;;5016039;28;20034;-60
2024/03/13 05:21:48;;;;;;;1.20;0.60;;;;;;;;;;5010498;28;20080;-59
2024/03/13 05:24:16;;;;;;;1.40;0.57;;;;;;;;;;5010802;28;20528;-58
2024/03/13 05:26:44;;;;;;;0.93;0.40;;;;;;;;;;5013757;28;20502;-57
2024/03/13 05:29:09;;;;;;;1.42;0.40;;;;;;;;;;5012956;28;20064;-57
2024/03/13 05:31:35;;;;;;;0.88;0.32;;;;;;;;;;5016828;28;20032;-62
2024/03/13 05:34:01;;;;;;;1.02;0.50;;;;;;;;;;5015980;28;20057;-72
2024/03/13 05:36:26;;;;;;;0.80;0.50;;;;;;;;;;5016238;28;20107;-56
2024/03/13 05:38:53;;;;;;;0.90;0.60;;;;;;;;;;5015620;28;20486;-56
2024/03/13 05:41:19;;;;;;;1.02;0.43;;;;;;;;;;5016369;28;20532;-57
2024/03/13 05:43:44;;;;;;;0.73;0.47;;;;;;;;;;5015156;28;20056;-56
2024/03/13 05:46:10;;;;;;;1.23;0.60;;;;;;;;;;5011971;28;20449;-57
2024/03/13 05:48:35;;;;;;;2.28;0.50;;;;;;;;;;5014494;28;20037;-57
2024/03/13 05:51:02;;;;;;;0.95;0.55;;;;;;;;;;5014972;28;20215;-57
2024/03/13 05:53:27;;;;;;;2.70;0.50;;;;;;;;;;5014403;28;20038;-62
2024/03/13 05:55:52;;;;;;;1.10;0.60;;;;;;;;;;5014919;28;20048;-62
2024/03/13 05:58:20;;;;;;;1.00;0.40;;;;;;;;;;5018551;28;20158;-58
2024/03/13 06:00:46;;;;;;;2.38;0.68;;;;;;;;;;5017748;28;20060;-56
2024/03/13 06:03:12;;;;;;;0.93;0.40;;;;;;;;;;5012451;28;20113;-57
2024/03/13 06:05:37;;;;;;;0.88;0.47;;;;;;;;;;5013283;28;20022;-57
2024/03/13 06:08:03;;;;;;;1.13;0.40;;;;;;;;;;5014583;28;20178;-57
2024/03/13 06:10:28;;;;;;;0.98;0.50;;;;;;;;;;5014087;28;20033;-57
2024/03/13 06:12:54;;;;;;;0.98;0.50;;;;;;;;;;5014368;28;20537;-56
2024/03/13 06:15:19;;;;;;;1.30;0.45;;;;;;;;;;5013712;28;20121;-57
2024/03/13 06:17:45;;;;;;;1.85;0.40;;;;;;;;;;5013260;28;20541;-56
2024/03/13 06:20:13;;;;;;;0.93;0.55;;;;;;;;;;5013966;28;20647;-61
2024/03/13 06:22:41;;;;;;;1.10;0.52;;;;;;;;;;5011235;28;20030;-58
2024/03/13 06:25:08;;;;;;;3.28;0.60;;;;;;;;;;5014270;28;20053;-57
2024/03/13 06:27:33;;;;;;;1.48;0.50;;;;;;;;;;5014832;28;20037;-57
2024/03/13 06:30:00;;;;;;;1.23;0.57;;;;;;;;;;5015031;28;20508;-56
2024/03/13 06:32:26;;;;;;;1.10;0.70;;;;;;;;;;5014508;28;20049;-56
2024/03/13 06:34:54;;;;;;;0.93;0.70;;;;;;;;;;5014543;28;20079;-56
2024/03/13 06:37:20;;;;;;;1.65;0.80;;;;;;;;;;5011780;28;20601;-63
2024/03/13 06:39:45;;;;;;;0.80;0.57;;;;;;;;;;5013900;28;20045;-60
2024/03/13 06:42:13;;;;;;;0.80;0.60;;;;;;;;;;5015015;28;20048;-58
2024/03/13 06:44:39;;;;;;;1.48;0.80;;;;;;;;;;5013772;28;20046;-64
2024/03/13 06:47:05;;;;;;;0.77;0.50;;;;;;;;;;5014135;28;20148;-59
2024/03/13 06:49:30;;;;;;;1.02;0.65;;;;;;;;;;5013844;28;20048;-57
2024/03/13 06:51:55;;;;;;;2.05;0.85;;;;;;;;;;5013236;28;20045;-56
2024/03/13 06:54:21;;;;;;;0.73;0.50;;;;;;;;;;5044948;28;20995;-57
2024/03/13 06:56:49;;;;;;;1.70;0.70;;;;;;;;;;5012582;28;20129;-60
2024/03/13 06:59:17;;;;;;;1.80;0.80;;;;;;;;;;5011903;28;20033;-62
2024/03/13 07:01:45;;;;;;;1.25;0.60;;;;;;;;;;5011338;28;20034;-59
2024/03/13 07:04:11;;;;;;;3.08;0.70;;;;;;;;;;5011931;28;20040;-56
2024/03/13 07:06:36;;;;;;;2.45;0.75;;;;;;;;;;5014929;28;20026;-63
2024/03/13 07:09:01;;;;;;;3.13;0.70;;;;;;;;;;5014523;28;20112;-58
2024/03/13 07:11:28;;;;;;;3.75;1.73;;;;;;;;;;5012282;28;20037;-56
2024/03/13 07:13:53;;;;;;;3.70;1.52;;;;;;;;;;5013798;28;20147;-63
2024/03/13 07:16:19;;;;;;;2.22;1.02;;;;;;;;;;5011851;28;20053;-67
2024/03/13 07:18:44;;;;;;;2.47;1.13;;;;;;;;;;5012331;28;20505;-63
2024/03/13 07:21:09;;;;;;;2.13;1.00;;;;;;;;;;5013390;28;20042;-58
2024/03/13 07:23:35;;;;;;;2.80;0.90;;;;;;;;;;5012959;28;20290;-57
2024/03/13 07:26:00;;;;;;;1.98;0.90;;;;;;;;;;5012987;28;20549;-60
2024/03/13 07:28:26;;;;;;;1.73;0.90;;;;;;;;;;5011940;28;20029;-62
2024/03/13 07:30:51;;;;;;;1.65;0.73;;;;;;;;;;5012159;28;20048;-73
2024/03/13 07:33:16;;;;;;;1.70;0.90;;;;;;;;;;5013292;28;20057;-67
2024/03/13 07:35:42;;;;;;;2.20;0.95;;;;;;;;;;5013718;28;20113;-57
2024/03/13 07:38:09;;;;;;;1.50;1.00;;;;;;;;;;5012863;28;20057;-65
2024/03/13 07:40:37;;;;;;;1.67;0.65;;;;;;;;;;5013300;28;21683;-56
2024/03/13 07:43:03;;;;;;;2.15;0.82;;;;;;;;;;5012620;28;20552;-57
2024/03/13 07:45:28;;;;;;;2.33;0.93;;;;;;;;;;5013245;28;20033;-56
2024/03/13 07:47:53;;;;;;;2.00;1.02;;;;;;;;;;5010841;28;20513;-60
2024/03/13 07:50:19;;;;;;;1.70;0.90;;;;;;;;;;5012553;28;20037;-59
2024/03/13 07:52:46;;;;;;;2.25;0.70;;;;;;;;;;5012216;28;20048;-57
2024/03/13 07:55:11;;;;;;;1.83;1.00;;;;;;;;;;5013611;28;20038;-59
2024/03/13 07:57:37;;;;;;;1.52;0.93;;;;;;;;;;5011577;28;20759;-56
2024/03/13 08:00:02;;;;;;;1.85;0.88;;;;;;;;;;5012712;28;20150;-57
2024/03/13 08:02:28;;;;;;;2.30;1.10;;;;;;;;;;5012468;28;20041;-59
2024/03/13 08:04:53;;;;;;;2.13;0.70;;;;;;;;;;5013363;28;20141;-57
2024/03/13 08:07:20;;;;;;;1.25;0.90;;;;;;;;;;5012908;28;20046;-58
2024/03/13 08:09:45;;;;;;;1.35;0.90;;;;;;;;;;5013048;28;20515;-57
2024/03/13 08:12:13;;;;;;;1.98;1.00;;;;;;;;;;5012207;28;20041;-59
2024/03/13 08:14:38;;;;;;;1.00;0.70;;;;;;;;;;5013373;28;20034;-61
2024/03/13 08:17:06;;;;;;;1.55;0.82;;;;;;;;;;5012828;28;20045;-57
2024/03/13 08:19:31;;;;;;;1.65;0.70;;;;;;;;;;5012757;28;20037;-57
2024/03/13 08:21:57;;;;;;;1.38;0.90;;;;;;;;;;5013558;28;20022;-61
2024/03/13 08:24:26;;;;;;;1.48;0.98;;;;;;;;;;5013158;28;20046;-64
2024/03/13 08:26:51;;;;;;;1.88;0.80;;;;;;;;;;5013433;28;20053;-63
2024/03/13 08:29:16;;;;;;;1.23;0.68;;;;;;;;;;5010757;28;20482;-58
2024/03/13 08:31:47;;;;;;;1.23;0.65;;;;;;;;;;5013246;28;20061;-60
2024/03/13 08:34:14;;;;;;;1.42;1.00;;;;;;;;;;5012380;28;20056;-61
2024/03/13 08:36:39;;;;;;;1.88;0.90;;;;;;;;;;5012327;28;20038;-57
2024/03/13 08:39:05;;;;;;;1.65;1.00;;;;;;;;;;5010873;28;20037;-59
2024/03/13 08:41:31;;;;;;;1.23;0.80;;;;;;;;;;5012946;28;20520;-56
2024/03/13 08:43:56;;;;;;;2.38;0.98;;;;;;;;;;5012229;28;20124;-59
2024/03/13 08:46:21;;;;;;;2.05;1.02;;;;;;;;;;5012328;28;20041;-59
2024/03/13 08:48:47;;;;;;;1.73;1.00;;;;;;;;;;5011595;28;20426;-59
2024/03/13 08:51:12;;;;;;;1.63;0.88;;;;;;;;;;5014232;28;20026;-57
2024/03/13 08:53:37;;;;;;;1.20;0.85;;;;;;;;;;5015461;28;20049;-61
2024/03/13 08:56:03;;;;;;;2.53;1.10;;;;;;;;;;5016113;28;20041;-57
2024/03/13 08:58:28;;;;;;;1.85;0.90;;;;;;;;;;5018195;28;20162;-56
2024/03/13 09:00:55;;;;;;;1.50;0.82;;;;;;;;;;5035818;28;20034;-57
2024/03/13 09:03:21;;;;;;;1.48;0.98;;;;;;;;;;5026187;28;20049;-62
2024/03/13 09:05:47;;;;;;;1.20;0.80;;;;;;;;;;5039995;28;20409;-57
2024/03/13 09:08:13;;;;;;;1.60;0.90;;;;;;;;;;5030648;28;20041;-56
2024/03/13 09:10:38;;;;;;;2.17;0.90;;;;;;;;;;5025102;28;20050;-56
2024/03/13 09:13:04;;;;;;;1.35;0.80;;;;;;;;;;5024411;28;20069;-61
2024/03/13 09:15:30;;;;;;;1.30;0.80;;;;;;;;;;5040930;28;20072;-78
2024/03/13 09:17:55;;;;;;;1.27;0.80;;;;;;;;;;5042227;28;20105;-66
2024/03/13 09:20:25;;;;;;;1.35;0.80;;;;;;;;;;5025572;28;20467;-76
2024/03/13 09:22:51;;;;;;;1.40;0.85;;;;;;;;;;5023876;28;20057;-58
2024/03/13 09:25:16;;;;;;;1.42;0.90;;;;;;;;;;5036139;28;20105;-56
2024/03/13 09:27:41;;;;;;;1.83;0.85;;;;;;;;;;5024348;28;20037;-59
2024/03/13 09:30:08;;;;;;;1.70;1.10;;;;;;;;;;5032955;28;20030;-76
2024/03/13 09:32:34;;;;;;;1.85;0.80;;;;;;;;;;5022634;28;20100;-62
2024/03/13 09:35:02;;;;;;;1.17;0.90;;;;;;;;;;5025418;28;20124;-67
2024/03/13 09:37:27;;;;;;;1.95;1.10;;;;;;;;;;5025257;28;20030;-57
2024/03/13 09:39:52;;;;;;;2.80;1.13;;;;;;;;;;5024153;28;20166;-59
2024/03/13 09:42:18;;;;;;;1.73;1.05;;;;;;;;;;5016087;28;20049;-56
2024/03/13 09:44:43;;;;;;;1.95;1.17;;;;;;;;;;5041232;28;20346;-57
2024/03/13 09:47:09;;;;;;;1.40;0.90;;;;;;;;;;5037546;28;20065;-57
2024/03/13 09:49:34;;;;;;;2.38;0.93;;;;;;;;;;5024342;28;20029;-68
2024/03/13 09:52:00;;;;;;;2.17;1.10;;;;;;;;;;5024263;28;20080;-57
2024/03/13 09:54:25;;;;;;;1.48;0.98;;;;;;;;;;5021892;28;20080;-57
2024/03/13 09:56:50;;;;;;;1.77;1.15;;;;;;;;;;5026894;28;20023;-68
2024/03/13 09:59:15;;;;;;;2.40;1.20;;;;;;;;;;5014433;28;20061;-72
2024/03/13 10:01:50;;;;;;;2.17;1.00;;;;;;;;;;5015154;28;20053;-68
2024/03/13 10:04:22;;;;;;;2.40;0.90;;;;;;;;;;5022678;28;20425;-69
2024/03/13 10:06:53;;;;;;;3.75;1.08;;;;;;;;;;5002937;28;20132;-63
2024/03/13 10:09:18;;;;;;;2.25;0.80;;;;;;;;;;5007686;28;20048;-72
2024/03/13 10:11:46;;;;;;;2.00;0.90;;;;;;;;;;5024185;28;20033;-61
2024/03/13 10:14:11;;;;;;;1.58;0.90;;;;;;;;;;5018885;28;20073;-58
2024/03/13 10:16:37;;;;;;;1.67;0.90;;;;;;;;;;5016041;28;20163;-64
2024/03/13 10:19:03;;;;;;;1.60;1.00;;;;;;;;;;5022276;28;20619;-58
2024/03/13 10:21:30;;;;;;;1.90;1.27;;;;;;;;;;5017990;28;20038;-58
2024/03/13 10:23:55;;;;;;;1.48;1.00;;;;;;;;;;5016858;28;20037;-60
2024/03/13 10:26:21;;;;;;;1.95;1.10;;;;;;;;;;5016956;28;20512;-62
2024/03/13 10:28:49;;;;;;;2.55;1.05;;;;;;;;;;5017012;28;20543;-58
2024/03/13 10:31:16;;;;;;;2.42;1.10;;;;;;;;;;5018031;28;20156;-63
2024/03/13 10:33:41;;;;;;;1.98;0.80;;;;;;;;;;5016888;28;20045;-58
2024/03/13 10:36:07;;;;;;;1.83;1.00;;;;;;;;;;5015250;28;20095;-69
2024/03/13 10:38:33;;;;;;;1.77;1.10;;;;;;;;;;5014709;28;20029;-58
2024/03/13 10:41:00;;;;;;;2.38;1.10;;;;;;;;;;5011881;28;20363;-60
2024/03/13 10:43:27;;;;;;;1.60;0.90;;;;;;;;;;5015119;28;20547;-63
2024/03/13 10:45:53;;;;;;;1.40;1.00;;;;;;;;;;5014159;28;20030;-58
2024/03/13 10:48:20;;;;;;;1.55;1.10;;;;;;;;;;5014370;28;20065;-62
2024/03/13 10:50:46;;;;;;;2.45;0.88;;;;;;;;;;5013510;28;20417;-58
2024/03/13 10:53:11;;;;;;;2.40;1.00;;;;;;;;;;5014758;28;20091;-59
2024/03/13 10:55:37;;;;;;;1.38;0.90;;;;;;;;;;5014094;28;20116;-65
2024/03/13 10:58:03;;;;;;;1.58;0.82;;;;;;;;;;5013835;28;20038;-59
2024/03/13 11:00:31;;;;;;;1.38;0.93;;;;;;;;;;5020347;28;20052;-65
2024/03/13 11:02:57;;;;;;;1.77;0.98;;;;;;;;;;5014135;28;20044;-58
2024/03/13 11:05:23;;;;;;;1.30;0.90;;;;;;;;;;5015044;28;20057;-59
2024/03/13 11:07:48;;;;;;;1.60;1.02;;;;;;;;;;5013856;28;20041;-64
2024/03/13 11:10:23;;;;;;;2.05;1.00;;;;;;;;;;5013692;28;20034;-61
2024/03/13 11:12:49;;;;;;;1.65;1.00;;;;;;;;;;5015584;28;20120;-59
2024/03/13 11:15:15;;;;;;;1.38;0.70;;;;;;;;;;5013686;28;20088;-60
2024/03/13 11:17:40;;;;;;;2.25;1.00;;;;;;;;;;5014327;28;20394;-59
2024/03/13 11:20:07;;;;;;;1.65;0.90;;;;;;;;;;5013901;28;20033;-64
2024/03/13 11:22:35;;;;;;;1.40;0.85;;;;;;;;;;5016248;28;20040;-64
2024/03/13 11:25:05;;;;;;;1.35;0.90;;;;;;;;;;5001705;28;20033;-59
2024/03/13 11:27:31;;;;;;;1.25;0.85;;;;;;;;;;5013658;28;20040;-59
2024/03/13 11:29:56;;;;;;;1.35;0.90;;;;;;;;;;5012814;28;20034;-65
2024/03/13 11:32:23;;;;;;;1.77;0.88;;;;;;;;;;5012523;28;20049;-62
2024/03/13 11:34:49;;;;;;;1.15;0.88;;;;;;;;;;5012459;28;20034;-59
2024/03/13 11:37:14;;;;;;;1.90;1.10;;;;;;;;;;5012515;28;20075;-59
2024/03/13 11:39:40;;;;;;;1.20;0.85;;;;;;;;;;5012057;28;20117;-61
2024/03/13 11:42:16;;;;;;;2.25;0.90;;;;;;;;;;5014909;28;20036;-58
2024/03/13 11:44:42;;;;;;;1.50;0.90;;;;;;;;;;5012702;28;20048;-59
2024/03/13 11:47:11;;;;;;;1.30;1.05;;;;;;;;;;5013630;28;20037;-58
2024/03/13 11:49:37;;;;;;;1.75;1.05;;;;;;;;;;5014136;28;20029;-61
2024/03/13 11:52:02;;;;;;;1.67;0.98;;;;;;;;;;5011454;28;20722;-62
2024/03/13 11:54:28;;;;;;;1.38;1.00;;;;;;;;;;5011117;28;20046;-58
2024/03/13 11:57:00;;;;;;;2.10;1.00;;;;;;;;;;5013325;28;20044;-58
2024/03/13 11:59:41;;;;;;;1.33;0.95;;;;;;;;;;5012222;28;20041;-59
2024/03/13 12:02:25;;;;;;;1.80;0.90;;;;;;;;;;5013131;28;20076;-58
2024/03/13 12:04:50;;;;;;;2.47;0.85;;;;;;;;;;5012256;28;20089;-57
2024/03/13 12:07:16;;;;;;;1.30;0.80;;;;;;;;;;5011532;28;20835;-59
2024/03/13 12:09:41;;;;;;;1.35;0.90;;;;;;;;;;5012712;28;20607;-58
2024/03/13 12:12:06;;;;;;;2.42;1.08;;;;;;;;;;5012264;28;20025;-58
2024/03/13 12:14:32;;;;;;;2.10;1.10;;;;;;;;;;5011073;28;20091;-57
2024/03/13 12:16:57;;;;;;;1.48;0.98;;;;;;;;;;5013060;28;20010;-62
2024/03/13 12:19:25;;;;;;;1.70;0.98;;;;;;;;;;5012849;28;20370;-63
2024/03/13 12:21:50;;;;;;;1.80;0.93;;;;;;;;;;5013992;28;20116;-58
2024/03/13 12:24:16;;;;;;;1.98;1.30;;;;;;;;;;5008968;28;20864;-58
2024/03/13 12:26:41;;;;;;;3.33;1.02;;;;;;;;;;5011281;28;20022;-64
2024/03/13 12:29:06;;;;;;;1.80;1.00;;;;;;;;;;5014502;28;20029;-64
2024/03/13 12:31:32;;;;;;;2.47;0.90;;;;;;;;;;5016262;28;20022;-59
2024/03/13 12:33:58;;;;;;;1.90;1.00;;;;;;;;;;5011231;28;20034;-63
2024/03/13 12:36:24;;;;;;;2.58;1.00;;;;;;;;;;5012043;28;20482;-65
2024/03/13 12:38:50;;;;;;;2.13;1.05;;;;;;;;;;5012592;28;20038;-58
2024/03/13 12:41:15;;;;;;;1.30;0.90;;;;;;;;;;5011137;28;20074;-61
2024/03/13 12:43:40;;;;;;;1.73;1.20;;;;;;;;;;5009895;28;20108;-57
2024/03/13 12:46:06;;;;;;;1.70;1.20;;;;;;;;;;5008971;28;20944;-57
2024/03/13 12:48:31;;;;;;;1.75;1.10;;;;;;;;;;5011203;28;20532;-58
2024/03/13 12:51:07;;;;;;;1.92;1.17;;;;;;;;;;5015924;28;20030;-58
2024/03/13 12:53:32;;;;;;;2.47;1.30;;;;;;;;;;5010670;28;20068;-61
2024/03/13 12:55:58;;;;;;;1.58;1.10;;;;;;;;;;5011738;28;20057;-59
2024/03/13 12:58:27;;;;;;;1.75;1.30;;;;;;;;;;5011762;28;20041;-58
2024/03/13 13:00:52;;;;;;;2.60;1.38;;;;;;;;;;5011217;28;20049;-58
2024/03/13 13:03:18;;;;;;;2.25;1.30;;;;;;;;;;5010921;28;20037;-59
2024/03/13 13:05:44;;;;;;;3.13;1.20;;;;;;;;;;5011424;28;20077;-58
2024/03/13 13:08:13;;;;;;;2.03;1.27;;;;;;;;;;5011420;28;20431;-58
2024/03/13 13:10:39;;;;;;;2.97;1.48;;;;;;;;;;5009285;28;20045;-57
2024/03/13 13:13:05;;;;;;;2.58;1.45;;;;;;;;;;5011124;28;20053;-59
2024/03/13 13:15:30;;;;;;;3.03;1.60;;;;;;;;;;5010902;28;20034;-58
2024/03/13 13:17:55;;;;;;;2.35;1.40;;;;;;;;;;5010688;28;20073;-59
2024/03/13 13:20:22;;;;;;;2.63;1.70;;;;;;;;;;5011689;28;20303;-61
2024/03/13 13:22:48;;;;;;;3.08;1.70;;;;;;;;;;5012391;28;20071;-58
2024/03/13 13:25:14;;;;;;;5.65;1.80;;;;;;;;;;5011965;28;20069;-58
2024/03/13 13:27:42;;;;;;;2.63;1.50;;;;;;;;;;5010843;28;20049;-67
2024/03/13 13:30:10;;;;;;;5.78;1.80;;;;;;;;;;5010129;28;20041;-58
2024/03/13 13:32:36;;;;;;;3.60;1.83;;;;;;;;;;5028582;28;20037;-59
2024/03/13 13:35:03;;;;;;;3.58;1.85;;;;;;;;;;5024295;28;20494;-58
2024/03/13 13:37:29;;;;;;;2.90;1.65;;;;;;;;;;5024974;28;21125;-57
2024/03/13 13:39:54;;;;;;;3.38;1.83;;;;;;;;;;5023360;28;20572;-60
2024/03/13 13:42:20;;;;;;;3.47;2.00;;;;;;;;;;5023386;28;20438;-66
2024/03/13 13:44:51;;;;;;;2.55;1.55;;;;;;;;;;5032483;28;20060;-61
2024/03/13 13:47:16;;;;;;;4.80;1.98;;;;;;;;;;5026759;28;20041;-59
2024/03/13 13:49:42;;;;;;;2.95;1.92;;;;;;;;;;5037458;28;20059;-62
2024/03/13 13:52:07;;;;;;;2.65;1.88;;;;;;;;;;5048170;28;20029;-61
2024/03/13 13:54:32;;;;;;;3.30;1.85;;;;;;;;;;5046214;28;20041;-62
2024/03/13 13:56:58;;;;;;;2.92;1.63;;;;;;;;;;5044965;28;20034;-63
2024/03/13 13:59:23;;;;;;;3.80;1.90;;;;;;;;;;5028088;28;20556;-59
2024/03/13 14:01:52;;;;;;;3.63;1.90;;;;;;;;;;5027000;28;20132;-58
2024/03/13 14:04:17;;;;;;;3.67;2.13;;;;;;;;;;5027283;28;20421;-58
2024/03/13 14:06:43;;;;;;;3.20;1.88;;;;;;;;;;5027003;28;20053;-58
2024/03/13 14:09:10;;;;;;;2.53;1.77;;;;;;;;;;5028192;28;20035;-58
2024/03/13 14:11:36;;;;;;;3.30;2.00;;;;;;;;;;5038703;28;20240;-65
2024/03/13 14:14:01;;;;;;;5.63;2.20;;;;;;;;;;5026946;28;20136;-60
2024/03/13 14:16:27;;;;;;;2.58;1.80;;;;;;;;;;5028639;28;20068;-58
2024/03/13 14:18:54;;;;;;;2.50;1.88;;;;;;;;;;5027052;28;20092;-61
2024/03/13 14:21:21;;;;;;;3.17;1.60;;;;;;;;;;5029710;28;20407;-59
2024/03/13 14:23:48;;;;;;;3.20;2.10;;;;;;;;;;5027343;28;20398;-64
2024/03/13 14:26:13;;;;;;;4.78;2.08;;;;;;;;;;5027990;28;20033;-58
2024/03/13 14:28:39;;;;;;;3.50;2.30;;;;;;;;;;5027486;28;20029;-58
2024/03/13 14:31:05;;;;;;;3.13;2.22;;;;;;;;;;5027238;28;20034;-62
2024/03/13 14:33:32;;;;;;;3.38;1.88;;;;;;;;;;5037718;28;20792;-63
2024/03/13 14:35:57;;;;;;;2.72;2.00;;;;;;;;;;5045690;28;20048;-59
2024/03/13 14:38:22;;;;;;;2.88;1.92;;;;;;;;;;5028284;28;20038;-59
2024/03/13 14:40:48;;;;;;;4.38;1.90;;;;;;;;;;5013237;28;20061;-58
2024/03/13 14:43:14;;;;;;;2.63;1.77;;;;;;;;;;5039561;28;20036;-59
2024/03/13 14:45:40;;;;;;;2.80;1.92;;;;;;;;;;5047313;28;20037;-60
2024/03/13 14:48:06;;;;;;;3.33;1.77;;;;;;;;;;5028830;28;20036;-71
2024/03/13 14:50:32;;;;;;;2.72;1.52;;;;;;;;;;5042972;28;20449;-59
2024/03/13 14:52:57;;;;;;;2.92;2.00;;;;;;;;;;5038661;28;20025;-57